Time;durP1;ratioP1;P1;durP2;ratioP2;P2;SDS_P1;SDS_P2;PMS_P1;PMS_P2;Temp;Humidity;BMP_temperature;BMP_pressure;BME280_temperature;BME280_humidity;BME280_pressure;Samples;Min_cycle;Max_cycle;Signal;HPM_P1;HPM_P2
2021/05/18 00:00:43;;;;;;;8.05;5.10;;;14.50;99.90;;;;;;4973255;28;20237;-75
2021/05/18 00:03:09;;;;;;;5.88;4.22;;;14.40;99.90;;;;;;4973263;28;20494;-75
2021/05/18 00:05:38;;;;;;;9.70;4.63;;;14.50;99.90;;;;;;4973371;28;20168;-75
2021/05/18 00:08:09;;;;;;;6.72;4.75;;;14.50;99.90;;;;;;4972594;28;20196;-75
2021/05/18 00:13:27;;;;;;;6.10;4.30;;;14.50;99.90;;;;;;4973089;28;20203;-75
2021/05/18 00:15:55;;;;;;;5.63;3.83;;;14.50;99.90;;;;;;4955605;28;20199;-75
2021/05/18 00:18:22;;;;;;;8.40;5.10;;;14.50;99.90;;;;;;4972610;28;20194;-75
2021/05/18 00:20:48;;;;;;;8.95;5.28;;;14.50;99.90;;;;;;4972985;28;20171;-75
2021/05/18 00:23:14;;;;;;;4.40;4.00;;;14.50;99.90;;;;;;4972782;28;20184;-75
2021/05/18 00:25:40;;;;;;;7.45;5.72;;;14.50;99.90;;;;;;4972896;28;20710;-75
2021/05/18 00:28:06;;;;;;;9.32;5.35;;;14.50;99.90;;;;;;4972310;28;20196;-75
2021/05/18 00:30:33;;;;;;;4.33;3.93;;;14.50;99.90;;;;;;4955544;28;20179;-75
2021/05/18 00:33:02;;;;;;;7.03;5.50;;;14.50;99.90;;;;;;4955396;28;20607;-75
2021/05/18 00:35:31;;;;;;;6.78;5.45;;;14.50;99.90;;;;;;4958318;28;20265;-76
2021/05/18 00:37:57;;;;;;;7.00;5.22;;;14.50;99.90;;;;;;4977027;28;20184;-75
2021/05/18 00:40:23;;;;;;;6.03;5.37;;;14.50;99.90;;;;;;4977027;28;20257;-75
2021/05/18 00:42:52;;;;;;;8.80;5.30;;;14.50;99.90;;;;;;4976821;28;20174;-75
2021/05/18 00:45:29;;;;;;;6.63;4.97;;;14.50;99.90;;;;;;4978232;28;20578;-75
2021/05/18 00:47:56;;;;;;;5.80;4.95;;;14.50;99.90;;;;;;4959232;28;20618;-75
2021/05/18 00:50:22;;;;;;;8.05;6.07;;;14.60;99.90;;;;;;4959710;28;20226;-75
2021/05/18 00:52:48;;;;;;;8.65;4.60;;;14.60;99.90;;;;;;4959311;28;20168;-76
2021/05/18 00:55:24;;;;;;;6.90;5.55;;;14.60;99.90;;;;;;4959560;28;20175;-75
2021/05/18 01:00:36;;;;;;;7.07;5.00;;;14.60;99.90;;;;;;4959356;28;20207;-76
2021/05/18 01:03:02;;;;;;;8.13;4.70;;;14.60;99.90;;;;;;4976331;28;20200;-75
2021/05/18 01:08:12;;;;;;;5.68;4.55;;;14.60;99.90;;;;;;4975787;28;21116;-75
2021/05/18 01:10:39;;;;;;;6.07;5.07;;;14.60;99.90;;;;;;4958995;28;20168;-75
2021/05/18 01:13:05;;;;;;;5.35;4.85;;;14.60;99.90;;;;;;4976227;28;20254;-75
2021/05/18 01:15:31;;;;;;;7.63;4.75;;;14.60;99.90;;;;;;4976089;28;20167;-76
2021/05/18 01:17:57;;;;;;;5.50;5.00;;;14.60;99.90;;;;;;4976723;28;20611;-75
2021/05/18 01:20:23;;;;;;;4.80;4.23;;;14.60;99.90;;;;;;4942749;28;20246;-75
2021/05/18 01:22:50;;;;;;;4.32;4.03;;;14.60;99.90;;;;;;4942900;28;21004;-75
2021/05/18 01:25:18;;;;;;;5.88;4.78;;;14.50;99.90;;;;;;4926947;28;20176;-75
2021/05/18 01:27:44;;;;;;;5.20;4.35;;;14.50;99.90;;;;;;4958531;28;20294;-75
2021/05/18 01:30:10;;;;;;;4.70;3.80;;;14.50;99.90;;;;;;4975885;28;20313;-76
2021/05/18 01:32:42;;;;;;;5.30;4.28;;;14.50;99.90;;;;;;4958619;28;20175;-75
2021/05/18 01:35:11;;;;;;;4.32;3.92;;;14.40;99.90;;;;;;4958334;28;20168;-75
2021/05/18 01:37:38;;;;;;;5.35;3.90;;;14.40;99.90;;;;;;4958007;28;20250;-75
2021/05/18 01:40:27;;;;;;;5.03;3.50;;;14.40;99.90;;;;;;4958710;28;20208;-75
2021/05/18 01:42:55;;;;;;;5.57;3.42;;;14.40;99.90;;;;;;4958359;28;20190;-75
2021/05/18 01:45:29;;;;;;;5.45;3.17;;;14.40;99.90;;;;;;4975570;28;20535;-74
2021/05/18 01:48:07;;;;;;;3.95;2.78;;;14.40;99.90;;;;;;4974150;28;20226;-74
2021/05/18 01:50:45;;;;;;;3.33;2.88;;;14.40;99.90;;;;;;4975532;28;20179;-74
2021/05/18 01:53:12;;;;;;;4.63;3.10;;;14.40;99.90;;;;;;4958265;28;20179;-75
2021/05/18 01:56:02;;;;;;;3.72;2.75;;;14.40;99.90;;;;;;4975313;28;20183;-75
2021/05/18 01:58:30;;;;;;;5.40;2.60;;;14.30;99.90;;;;;;4941646;28;20207;-75
2021/05/18 02:01:19;;;;;;;4.43;2.33;;;14.30;99.90;;;;;;4957956;28;20560;-75
2021/05/18 02:03:45;;;;;;;2.47;2.13;;;14.30;99.90;;;;;;4926054;28;20615;-75
2021/05/18 02:06:11;;;;;;;6.07;2.20;;;14.30;99.90;;;;;;4957853;28;20243;-75
2021/05/18 02:08:44;;;;;;;4.15;2.17;;;14.20;99.90;;;;;;4957693;28;20249;-75
2021/05/18 02:11:17;;;;;;;3.25;2.15;;;14.20;99.90;;;;;;4957959;28;20549;-75
2021/05/18 02:13:48;;;;;;;1.80;1.45;;;14.10;99.90;;;;;;4957882;28;20179;-75
2021/05/18 02:16:35;;;;;;;4.72;2.20;;;14.10;99.90;;;;;;4957652;28;20672;-75
2021/05/18 02:27:07;;;;;;;6.55;2.22;;;14.00;99.90;;;;;;4957494;28;20206;-75
2021/05/18 02:29:34;;;;;;;3.30;1.83;;;14.00;99.90;;;;;;4957776;28;20741;-75
2021/05/18 02:32:00;;;;;;;3.50;2.00;;;14.00;99.90;;;;;;4975590;28;20254;-75
2021/05/18 02:34:59;;;;;;;3.65;1.73;;;14.00;99.90;;;;;;4961671;28;20254;-74
2021/05/18 02:37:25;;;;;;;1.80;1.60;;;14.00;99.90;;;;;;4974259;28;20327;-75
2021/05/18 02:39:51;;;;;;;2.33;1.90;;;14.00;99.90;;;;;;4957279;28;20580;-75
2021/05/18 02:42:17;;;;;;;5.72;1.60;;;14.00;99.90;;;;;;4974473;28;20202;-75
2021/05/18 02:44:58;;;;;;;3.90;1.73;;;14.00;99.90;;;;;;4975024;28;20176;-77
2021/05/18 02:50:12;;;;;;;3.63;1.60;;;14.00;99.90;;;;;;4974661;28;20167;-77
2021/05/18 02:52:41;;;;;;;5.03;1.70;;;14.00;99.90;;;;;;4957507;28;20230;-77
2021/05/18 02:55:18;;;;;;;4.65;1.80;;;14.00;99.90;;;;;;4956993;28;20172;-77
2021/05/18 02:57:51;;;;;;;3.40;1.70;;;14.00;99.90;;;;;;4957507;28;20211;-77
2021/05/18 03:00:21;;;;;;;7.57;2.25;;;14.00;99.90;;;;;;4956832;28;20656;-77
2021/05/18 03:02:48;;;;;;;5.47;1.70;;;14.00;99.90;;;;;;4974240;28;20214;-77
2021/05/18 03:05:14;;;;;;;5.72;2.30;;;14.00;99.90;;;;;;4956916;28;20176;-77
2021/05/18 03:07:40;;;;;;;8.37;2.60;;;14.00;99.90;;;;;;4973714;28;20207;-77
2021/05/18 03:10:07;;;;;;;4.47;1.48;;;14.00;99.90;;;;;;4974092;28;20575;-77
2021/05/18 03:12:33;;;;;;;4.75;1.25;;;14.00;99.90;;;;;;4974161;28;20176;-77
2021/05/18 03:14:59;;;;;;;7.33;1.80;;;14.00;99.90;;;;;;4940962;28;20175;-77
2021/05/18 03:17:26;;;;;;;5.35;1.88;;;14.00;99.90;;;;;;4940136;28;21066;-77
2021/05/18 03:19:52;;;;;;;3.95;1.50;;;14.00;99.90;;;;;;4973937;28;20163;-77
2021/05/18 03:22:17;;;;;;;4.10;1.93;;;14.00;99.90;;;;;;4940561;28;20238;-77
2021/05/18 03:24:43;;;;;;;5.17;1.63;;;14.00;99.90;;;;;;4956748;28;20238;-77
2021/05/18 03:27:10;;;;;;;3.10;1.53;;;14.00;99.90;;;;;;4980851;28;20203;-78
2021/05/18 03:29:36;;;;;;;6.28;2.20;;;14.00;99.90;;;;;;4985776;28;20581;-77
2021/05/18 03:34:48;;;;;;;3.58;1.50;;;14.00;99.90;;;;;;4981464;28;20574;-78
2021/05/18 03:37:29;;;;;;;3.80;1.70;;;14.00;99.90;;;;;;4986870;28;20196;-78
2021/05/18 03:40:05;;;;;;;2.95;1.65;;;14.00;99.90;;;;;;4967717;28;20179;-78
2021/05/18 03:42:35;;;;;;;2.72;1.55;;;14.00;99.90;;;;;;4993314;28;20190;-77
2021/05/18 04:04:02;;;;;;;5.20;1.75;;;13.90;99.90;;;;;;5002639;28;20171;-76
2021/05/18 04:17:23;;;;;;;4.72;1.60;;;14.00;99.90;;;;;;4992773;28;20238;-76
2021/05/18 04:52:06;;;;;;;6.05;1.88;;;14.40;99.90;;;;;;4958782;28;20211;-77
2021/05/18 04:55:23;;;;;;;6.97;1.60;;;14.40;99.90;;;;;;4974285;28;20264;-78
2021/05/18 05:00:26;;;;;;;5.18;2.15;;;14.40;99.90;;;;;;4991927;28;20179;-78
2021/05/18 05:08:21;;;;;;;7.00;3.38;;;14.50;99.90;;;;;;4972083;28;20253;-78
2021/05/18 05:16:00;;;;;;;6.63;2.28;;;14.60;99.90;;;;;;4972312;28;20191;-77
2021/05/18 05:18:26;;;;;;;5.57;2.15;;;14.60;99.90;;;;;;4954593;28;20180;-78
2021/05/18 05:20:52;;;;;;;5.00;2.40;;;14.60;99.90;;;;;;4980702;28;20178;-77
2021/05/18 05:23:18;;;;;;;5.87;2.30;;;14.60;99.90;;;;;;4977735;28;20666;-77
2021/05/18 05:25:44;;;;;;;6.23;2.77;;;14.70;99.90;;;;;;4995188;28;20191;-77
2021/05/18 05:28:10;;;;;;;7.13;2.00;;;14.70;99.90;;;;;;4994735;28;20994;-78
2021/05/18 05:30:36;;;;;;;5.20;2.47;;;14.80;99.90;;;;;;4995241;28;20575;-78
2021/05/18 05:33:02;;;;;;;4.30;1.83;;;14.90;99.90;;;;;;4977437;28;21005;-77
2021/05/18 05:35:28;;;;;;;5.43;1.60;;;14.90;99.90;;;;;;4995382;28;20171;-79
2021/05/18 05:37:55;;;;;;;6.90;1.20;;;15.00;99.90;;;;;;4961402;28;20609;-80
2021/05/18 05:40:21;;;;;;;6.90;2.03;;;15.10;99.90;;;;;;4995345;28;20167;-79
2021/05/18 05:42:46;;;;;;;4.37;1.57;;;15.20;99.90;;;;;;4994914;28;20585;-79
2021/05/18 05:45:13;;;;;;;6.07;1.77;;;15.30;99.90;;;;;;4977876;28;20658;-78
2021/05/18 05:47:39;;;;;;;5.37;1.63;;;15.40;99.90;;;;;;4980811;28;20626;-78
2021/05/18 05:50:06;;;;;;;3.30;1.23;;;15.40;99.90;;;;;;4995799;28;20565;-78
2021/05/18 05:52:33;;;;;;;5.15;1.38;;;15.40;99.90;;;;;;5000947;28;20936;-79
2021/05/18 05:54:59;;;;;;;4.27;1.60;;;15.40;99.90;;;;;;4993104;28;20183;-79
2021/05/18 05:57:24;;;;;;;6.60;1.90;;;15.40;99.90;;;;;;4983057;28;20623;-80
2021/05/18 05:59:50;;;;;;;3.10;1.90;;;15.30;99.90;;;;;;4984870;28;20168;-80
2021/05/18 06:02:16;;;;;;;5.13;1.47;;;15.20;99.90;;;;;;4988081;28;20321;-80
2021/05/18 06:04:42;;;;;;;4.80;1.50;;;15.10;99.90;;;;;;4988361;28;20226;-81
2021/05/18 06:07:11;;;;;;;5.93;1.27;;;15.00;99.90;;;;;;4967136;28;20652;-79
2021/05/18 06:09:38;;;;;;;4.15;1.30;;;14.80;99.90;;;;;;4986974;28;20160;-80
2021/05/18 06:42:09;;;;;;;6.65;1.30;;;13.20;99.90;;;;;;4974533;28;20254;-75
2021/05/18 06:53:05;;;;;;;4.47;1.70;;;13.20;99.90;;;;;;4974505;28;20168;-74
2021/05/18 06:55:39;;;;;;;3.30;1.98;;;13.20;99.90;;;;;;4968886;28;20171;-75
2021/05/18 07:01:44;;;;;;;4.45;2.10;;;13.20;99.90;;;;;;4966234;28;20244;-79
2021/05/18 07:04:11;;;;;;;3.70;2.57;;;13.30;99.90;;;;;;4976770;28;20182;-79
2021/05/18 07:06:52;;;;;;;4.07;2.67;;;13.40;99.90;;;;;;4978873;28;20200;-79
2021/05/18 07:09:17;;;;;;;6.95;3.20;;;13.40;99.90;;;;;;4957206;28;20199;-82
2021/05/18 07:11:43;;;;;;;6.67;3.00;;;13.50;99.90;;;;;;4957184;28;20238;-81
2021/05/18 07:14:09;;;;;;;4.03;3.00;;;13.60;99.90;;;;;;4956879;28;20227;-81
2021/05/18 07:16:36;;;;;;;6.03;4.07;;;13.60;99.90;;;;;;4996127;23;20226;-79
2021/05/18 07:19:03;;;;;;;6.03;3.78;;;13.70;99.90;;;;;;4940860;28;20176;-79
2021/05/18 07:21:29;;;;;;;5.93;3.10;;;13.80;99.90;;;;;;4941425;28;20583;-78
2021/05/18 07:23:55;;;;;;;6.33;3.10;;;13.90;99.90;;;;;;4940911;28;20172;-79
2021/05/18 07:26:21;;;;;;;4.50;3.97;;;14.10;99.90;;;;;;4972614;28;20645;-79
2021/05/18 07:28:47;;;;;;;5.13;3.83;;;14.50;99.90;;;;;;4978026;28;20206;-80
2021/05/18 07:31:13;;;;;;;6.43;3.80;;;15.00;99.90;;;;;;4957604;28;20583;-79
2021/05/18 07:33:39;;;;;;;4.87;3.20;;;15.70;99.90;;;;;;4974920;28;20563;-79
2021/05/18 07:36:08;;;;;;;5.20;3.10;;;16.30;99.90;;;;;;4956499;28;20645;-78
2021/05/18 07:38:42;;;;;;;6.70;3.37;;;16.80;99.90;;;;;;4942963;28;20594;-79
2021/05/18 07:41:09;;;;;;;4.47;3.50;;;17.20;99.90;;;;;;4973341;28;20900;-79
2021/05/18 07:43:35;;;;;;;8.27;3.57;;;17.40;99.90;;;;;;4940544;28;20583;-78
2021/05/18 07:46:03;;;;;;;4.97;3.87;;;17.60;99.90;;;;;;4973302;28;20595;-79
2021/05/18 07:49:10;;;;;;;4.87;4.37;;;17.80;99.90;;;;;;4955895;28;20641;-79
2021/05/18 08:02:24;;;;;;;7.60;4.80;;;18.00;99.90;;;;;;4974546;28;20591;-79
2021/05/18 08:07:36;;;;;;;5.50;3.80;;;18.00;99.90;;;;;;4942791;28;20706;-79
2021/05/18 08:10:15;;;;;;;8.30;4.23;;;18.10;99.90;;;;;;4976113;28;20598;-79
2021/05/18 08:12:41;;;;;;;5.27;4.40;;;18.10;99.90;;;;;;4941240;28;20686;-79
2021/05/18 10:34:39;;;;;;;4.27;2.00;;;23.80;99.90;;;;;;4958318;28;20563;-78
2021/05/18 10:37:25;;;;;;;3.00;1.20;;;23.90;99.90;;;;;;4974122;28;20606;-78
2021/05/18 10:40:16;;;;;;;4.17;1.30;;;24.30;99.90;;;;;;4974669;28;20618;-77
2021/05/18 10:43:18;;;;;;;2.17;1.07;;;24.60;99.90;;;;;;4941649;28;20606;-79
2021/05/18 10:45:58;;;;;;;1.30;0.80;;;24.60;99.90;;;;;;4957600;28;20623;-78
2021/05/18 10:48:52;;;;;;;2.53;0.90;;;24.70;99.90;;;;;;4956944;28;20639;-78
2021/05/18 10:51:52;;;;;;;2.63;1.53;;;24.70;99.90;;;;;;4956336;28;20641;-78
2021/05/18 10:54:39;;;;;;;2.60;1.63;;;24.90;99.90;;;;;;4956932;28;20583;-78
2021/05/18 10:57:14;;;;;;;5.00;3.00;;;25.10;99.90;;;;;;4974070;28;20599;-78
2021/05/18 10:59:48;;;;;;;2.67;1.50;;;25.20;99.90;;;;;;4958002;28;21134;-79
2021/05/18 11:02:37;;;;;;;3.80;1.30;;;25.30;99.90;;;;;;4957490;28;20586;-78
2021/05/18 11:05:16;;;;;;;2.80;1.77;;;25.30;99.90;;;;;;4974284;28;20579;-78
2021/05/18 11:07:50;;;;;;;3.10;2.43;;;25.20;99.90;;;;;;4940348;28;20662;-78
2021/05/18 11:10:44;;;;;;;3.27;1.60;;;25.00;99.00;;;;;;4958009;28;20579;-79
2021/05/18 11:13:23;;;;;;;1.60;1.23;;;24.90;99.50;;;;;;4973981;28;21115;-79
2021/05/18 11:15:51;;;;;;;2.13;1.30;;;24.90;99.80;;;;;;4956505;28;20987;-78
2021/05/18 11:18:33;;;;;;;4.07;1.17;;;25.00;99.30;;;;;;4956449;28;20606;-78
2021/05/18 11:21:11;;;;;;;2.07;1.10;;;25.10;98.40;;;;;;4960907;28;20655;-78
2021/05/18 11:23:48;;;;;;;2.60;1.07;;;25.10;98.40;;;;;;4957175;28;21127;-80
2021/05/18 11:26:53;;;;;;;2.00;1.10;;;25.10;97.40;;;;;;4973281;28;20607;-78
2021/05/18 11:29:47;;;;;;;1.93;0.90;;;24.90;96.50;;;;;;4940579;28;20729;-78
2021/05/18 11:32:30;;;;;;;1.80;1.10;;;24.50;94.90;;;;;;4956323;28;20568;-78
2021/05/18 11:35:06;;;;;;;5.53;1.13;;;24.10;95.00;;;;;;4956321;28;21123;-78
2021/05/18 11:37:33;;;;;;;4.50;1.47;;;23.70;94.40;;;;;;4973173;28;20599;-78
2021/05/18 11:40:21;;;;;;;2.30;1.63;;;23.30;94.60;;;;;;4973429;28;20582;-78
2021/05/18 11:43:11;;;;;;;2.30;1.10;;;22.90;94.20;;;;;;4956752;28;21177;-78
2021/05/18 11:45:47;;;;;;;1.60;1.03;;;22.60;95.10;;;;;;4940061;28;21035;-78
2021/05/18 11:48:22;;;;;;;1.83;0.90;;;22.40;95.30;;;;;;4972637;28;20651;-78
2021/05/18 11:51:05;;;;;;;1.47;1.07;;;22.20;95.60;;;;;;4973304;28;21003;-78
2021/05/18 11:53:44;;;;;;;3.03;1.60;;;22.20;95.80;;;;;;4973192;28;20951;-78
2021/05/18 11:56:32;;;;;;;6.17;3.87;;;22.30;96.60;;;;;;4973034;28;20603;-78
2021/05/18 11:59:19;;;;;;;2.40;2.20;;;22.50;97.40;;;;;;4944467;28;20610;-78
2021/05/18 12:02:08;;;;;;;2.17;1.20;;;22.70;97.20;;;;;;4939982;28;20594;-77
2021/05/18 12:04:50;;;;;;;2.00;1.20;;;22.80;96.50;;;;;;4956791;28;20745;-77
2021/05/18 12:07:21;;;;;;;1.97;1.23;;;22.80;96.80;;;;;;4955355;28;20617;-78
2021/05/18 12:09:53;;;;;;;3.23;1.00;;;22.70;96.00;;;;;;4956691;28;20590;-78
2021/05/18 12:12:24;;;;;;;2.37;1.03;;;22.60;95.50;;;;;;4955912;28;20588;-77
2021/05/18 12:15:01;;;;;;;3.27;1.00;;;22.50;95.90;;;;;;4955436;28;20695;-78
2021/05/18 12:17:32;;;;;;;1.53;1.20;;;22.40;96.70;;;;;;4982033;28;20652;-78
2021/05/18 12:20:16;;;;;;;1.30;0.70;;;22.60;97.60;;;;;;4950612;28;21228;-79
2021/05/18 12:23:01;;;;;;;1.70;1.00;;;22.80;97.40;;;;;;4984763;28;20594;-78
2021/05/18 12:25:35;;;;;;;2.67;1.40;;;23.10;98.10;;;;;;4991814;28;20593;-78
2021/05/18 12:28:18;;;;;;;4.57;1.00;;;23.50;98.60;;;;;;4992809;28;21177;-79
2021/05/18 12:33:36;;;;;;;2.57;1.63;;;24.20;98.30;;;;;;4963655;28;20610;-78
2021/05/18 12:36:13;;;;;;;2.40;1.10;;;24.30;97.20;;;;;;4967810;28;21213;-78
2021/05/18 12:39:17;;;;;;;3.67;1.50;;;24.50;96.90;;;;;;4993345;28;20585;-78
2021/05/18 12:42:02;;;;;;;2.40;1.30;;;24.40;95.60;;;;;;4945900;28;21141;-78
2021/05/18 12:44:59;;;;;;;2.03;1.10;;;24.40;95.00;;;;;;4968070;28;20616;-78
2021/05/18 12:47:35;;;;;;;1.83;1.03;;;24.30;94.50;;;;;;4979069;28;21509;-78
2021/05/18 12:50:08;;;;;;;3.00;1.27;;;24.20;94.40;;;;;;4983766;28;21137;-78
2021/05/18 12:53:00;;;;;;;3.60;2.17;;;24.00;94.10;;;;;;4987250;28;20948;-78
2021/05/18 12:55:43;;;;;;;3.47;1.67;;;23.90;93.60;;;;;;4973090;28;20964;-78
2021/05/18 12:58:33;;;;;;;2.13;1.70;;;23.70;92.80;;;;;;4973003;28;21146;-78
2021/05/18 13:01:28;;;;;;;2.83;1.80;;;23.60;92.50;;;;;;4971369;28;20594;-78
2021/05/18 13:04:12;;;;;;;2.37;1.70;;;23.50;92.70;;;;;;4960678;28;20591;-77
2021/05/18 13:06:56;;;;;;;2.50;2.07;;;23.60;92.90;;;;;;4967496;28;20610;-78
2021/05/18 13:09:29;;;;;;;2.70;1.90;;;23.60;92.40;;;;;;4984688;28;20664;-78
2021/05/18 13:12:14;;;;;;;7.80;4.23;;;23.60;91.80;;;;;;4972208;28;20589;-79
2021/05/18 13:15:20;;;;;;;3.70;2.80;;;23.60;91.20;;;;;;4938626;29;20639;-78
2021/05/18 13:18:26;;;;;;;3.43;3.13;;;23.60;90.90;;;;;;4970106;28;20603;-78
2021/05/18 13:20:58;;;;;;;2.70;2.13;;;23.50;90.60;;;;;;4976417;28;21184;-78
2021/05/18 13:23:52;;;;;;;4.67;2.00;;;23.40;88.30;;;;;;4992967;28;20586;-77
2021/05/18 13:26:50;;;;;;;2.03;1.70;;;22.90;85.50;;;;;;4967931;28;20650;-78
2021/05/18 13:29:25;;;;;;;2.00;1.70;;;22.30;83.80;;;;;;4995509;28;20626;-78
2021/05/18 13:32:04;;;;;;;3.53;2.07;;;21.60;84.30;;;;;;4970144;28;20618;-77
2021/05/18 13:34:50;;;;;;;3.07;2.10;;;21.00;85.20;;;;;;4981814;28;20689;-78
2021/05/18 13:37:30;;;;;;;2.47;2.27;;;20.40;86.70;;;;;;4997975;28;21171;-79
2021/05/18 13:40:31;;;;;;;3.20;2.90;;;19.90;88.50;;;;;;4978265;28;20574;-78
2021/05/18 13:43:09;;;;;;;2.70;1.97;;;19.50;90.40;;;;;;4987627;28;20991;-77
2021/05/18 13:45:43;;;;;;;3.33;2.00;;;19.20;90.90;;;;;;4985778;28;20600;-76
2021/05/18 13:48:12;;;;;;;2.60;2.40;;;19.20;91.90;;;;;;4978521;28;20626;-77
2021/05/18 13:50:43;;;;;;;3.27;2.97;;;19.20;93.00;;;;;;4979318;28;20587;-77
2021/05/18 13:53:22;;;;;;;4.20;3.10;;;19.30;93.60;;;;;;4975280;28;20590;-75
2021/05/18 13:56:02;;;;;;;5.37;3.57;;;19.50;94.20;;;;;;4980264;28;20626;-77
2021/05/18 13:58:36;;;;;;;3.20;2.70;;;19.70;94.60;;;;;;4975015;28;20645;-77
2021/05/18 14:01:22;;;;;;;3.03;2.63;;;19.90;94.50;;;;;;4968281;28;20740;-78
2021/05/18 14:03:56;;;;;;;2.67;2.40;;;20.00;94.20;;;;;;4955991;29;20192;-76
2021/05/18 14:06:32;;;;;;;3.00;2.73;;;20.20;93.90;;;;;;4939358;29;20611;-77
2021/05/18 14:09:06;;;;;;;3.17;2.87;;;20.20;93.90;;;;;;4938564;29;20616;-76
2021/05/18 14:14:39;;;;;;;2.73;1.70;;;20.20;93.90;;;;;;4955122;29;20590;-77
2021/05/18 14:17:23;;;;;;;2.13;1.90;;;20.30;94.00;;;;;;4955328;28;20961;-77
2021/05/18 14:19:55;;;;;;;2.30;2.10;;;20.30;93.60;;;;;;4938579;29;20582;-78
2021/05/18 14:22:41;;;;;;;2.27;2.07;;;20.20;93.40;;;;;;4954458;28;21115;-77
2021/05/18 14:25:27;;;;;;;2.10;1.50;;;20.20;93.10;;;;;;4939985;29;20583;-77
2021/05/18 14:28:15;;;;;;;3.00;2.60;;;20.10;93.10;;;;;;4961492;29;20619;-78
2021/05/18 14:31:10;;;;;;;6.60;3.00;;;19.90;93.10;;;;;;4955565;29;20623;-76
2021/05/18 14:34:11;;;;;;;2.10;1.80;;;19.80;93.00;;;;;;4922600;29;20679;-78
2021/05/18 14:36:57;;;;;;;4.60;2.53;;;19.60;93.30;;;;;;4953651;29;20663;-77
2021/05/18 14:42:51;;;;;;;2.23;1.83;;;19.30;93.90;;;;;;4954648;28;20597;-76
2021/05/18 14:45:46;;;;;;;3.70;3.40;;;19.10;94.10;;;;;;4935815;28;20588;-76
2021/05/18 14:53:43;;;;;;;3.20;3.00;;;18.20;94.80;;;;;;4937756;29;20572;-79
2021/05/18 14:56:09;;;;;;;3.80;3.50;;;17.90;95.20;;;;;;4955101;28;20663;-79
2021/05/18 14:58:35;;;;;;;4.33;4.03;;;17.60;95.60;;;;;;4937653;29;21232;-78
2021/05/18 15:01:01;;;;;;;4.43;4.07;;;17.50;96.10;;;;;;4938022;29;20683;-79
2021/05/18 15:03:31;;;;;;;4.13;3.70;;;17.30;96.50;;;;;;4956999;29;20620;-79
2021/05/18 15:05:57;;;;;;;4.00;3.67;;;17.00;96.70;;;;;;4956791;28;20666;-78
2021/05/18 15:08:24;;;;;;;3.90;3.60;;;16.80;97.10;;;;;;4937412;29;20698;-78
2021/05/18 15:10:52;;;;;;;6.47;4.27;;;16.70;97.50;;;;;;4937489;29;20991;-78
2021/05/18 15:13:28;;;;;;;4.33;3.53;;;16.60;98.00;;;;;;4940732;29;20620;-78
2021/05/18 15:16:26;;;;;;;2.80;2.60;;;16.50;98.90;;;;;;4943430;29;20646;-79
2021/05/18 15:23:31;;;;;;;5.13;3.07;;;16.30;98.80;;;;;;4981054;28;20598;-78
2021/05/18 15:26:10;;;;;;;4.17;3.23;;;16.10;98.60;;;;;;4966883;28;21189;-79
2021/05/18 15:28:45;;;;;;;3.87;3.40;;;16.00;98.90;;;;;;4941087;29;20682;-79
2021/05/18 15:31:12;;;;;;;3.78;3.47;;;15.90;99.70;;;;;;4941129;29;20588;-78
2021/05/18 15:33:39;;;;;;;3.53;3.17;;;15.80;99.90;;;;;;4922001;29;20172;-79
2021/05/18 15:36:06;;;;;;;4.40;4.10;;;15.80;99.90;;;;;;4975254;28;20626;-78
2021/05/18 15:38:38;;;;;;;3.83;3.43;;;15.80;99.90;;;;;;4992747;28;20180;-78
2021/05/18 15:41:07;;;;;;;3.90;3.60;;;15.80;99.90;;;;;;4995604;28;20680;-78
2021/05/18 15:43:34;;;;;;;3.50;3.00;;;15.80;99.90;;;;;;4975746;28;20681;-78
2021/05/18 15:46:01;;;;;;;5.17;4.67;;;15.80;99.90;;;;;;4975446;28;21157;-79
2021/05/18 15:48:27;;;;;;;4.40;4.00;;;15.70;99.90;;;;;;4992490;28;20614;-78
2021/05/18 15:50:54;;;;;;;4.13;3.83;;;15.70;99.90;;;;;;4992572;28;20574;-78
2021/05/18 15:53:20;;;;;;;4.80;4.30;;;15.60;99.90;;;;;;4975419;28;20582;-77
2021/05/18 15:55:45;;;;;;;4.40;4.00;;;15.60;99.90;;;;;;4992324;28;20582;-77
2021/05/18 15:58:11;;;;;;;4.47;4.07;;;15.60;99.90;;;;;;4992153;28;20948;-78
2021/05/18 16:00:37;;;;;;;4.30;3.90;;;15.50;99.90;;;;;;4992352;28;20678;-77
2021/05/18 16:03:05;;;;;;;3.43;2.70;;;15.50;99.90;;;;;;4992722;28;20597;-77
2021/05/18 16:05:31;;;;;;;4.10;3.00;;;15.50;99.90;;;;;;4958195;28;20185;-78
2021/05/18 16:10:40;;;;;;;3.57;3.27;;;15.50;99.90;;;;;;4992342;28;20261;-77
2021/05/18 16:13:06;;;;;;;3.60;3.30;;;15.60;99.90;;;;;;4975206;28;20566;-78
2021/05/18 16:15:32;;;;;;;3.30;3.10;;;15.60;99.90;;;;;;4976426;28;20695;-78
2021/05/18 16:17:58;;;;;;;4.33;3.97;;;15.60;99.90;;;;;;4976832;28;20214;-77
2021/05/18 16:20:24;;;;;;;4.10;3.07;;;15.60;99.90;;;;;;4992963;28;20578;-77
2021/05/18 16:22:49;;;;;;;4.20;3.50;;;15.60;99.90;;;;;;4993687;28;20281;-77
2021/05/18 16:25:15;;;;;;;4.27;3.73;;;15.80;99.90;;;;;;4992362;28;20654;-77
2021/05/18 16:27:41;;;;;;;3.50;3.23;;;15.90;99.90;;;;;;4960593;28;20199;-77
2021/05/18 16:30:07;;;;;;;3.60;3.30;;;16.10;99.90;;;;;;4973491;28;20536;-77
2021/05/18 16:32:33;;;;;;;4.70;3.03;;;16.20;99.90;;;;;;4955477;28;20628;-78
2021/05/18 16:34:59;;;;;;;6.03;3.50;;;16.40;99.90;;;;;;4973084;28;20606;-78
2021/05/18 16:37:24;;;;;;;4.27;3.87;;;16.50;99.90;;;;;;4954719;28;20642;-78
2021/05/18 16:39:50;;;;;;;4.07;3.40;;;16.50;99.90;;;;;;4972576;28;20172;-78
2021/05/18 16:42:16;;;;;;;3.10;2.80;;;16.60;99.90;;;;;;4955170;28;20178;-78
2021/05/18 16:44:41;;;;;;;3.37;3.07;;;16.70;99.90;;;;;;4955585;28;20214;-78
2021/05/18 16:47:07;;;;;;;3.40;3.07;;;16.90;99.90;;;;;;4972165;28;20342;-78
2021/05/18 16:49:33;;;;;;;3.97;3.13;;;17.00;99.90;;;;;;4955275;28;20624;-78
2021/05/18 16:51:59;;;;;;;4.40;4.00;;;17.00;99.90;;;;;;4972293;28;20199;-78
2021/05/18 16:54:26;;;;;;;5.27;2.80;;;17.10;99.90;;;;;;4939336;28;20175;-78
2021/05/18 16:56:52;;;;;;;2.60;2.40;;;17.10;99.90;;;;;;4982002;28;20614;-78
2021/05/18 16:59:18;;;;;;;3.10;2.80;;;17.30;99.90;;;;;;4974103;28;20602;-79
2021/05/18 17:01:44;;;;;;;3.80;2.97;;;17.40;99.90;;;;;;4972336;28;20582;-78
2021/05/18 17:04:11;;;;;;;3.33;2.67;;;17.50;99.90;;;;;;4972253;28;20710;-78
2021/05/18 17:06:37;;;;;;;3.30;3.03;;;17.40;99.90;;;;;;4924346;28;20667;-79
2021/05/18 17:09:05;;;;;;;2.37;2.17;;;17.50;99.90;;;;;;4961982;28;20623;-79
2021/05/18 17:11:31;;;;;;;2.77;2.57;;;17.50;99.90;;;;;;4960706;28;21359;-80
2021/05/18 17:14:03;;;;;;;3.50;3.03;;;17.50;99.90;;;;;;4959303;28;21021;-80
2021/05/18 17:16:29;;;;;;;3.40;3.10;;;17.50;99.90;;;;;;4955580;28;20665;-78
2021/05/18 17:18:55;;;;;;;3.63;3.33;;;17.40;99.90;;;;;;4962249;28;20572;-77
2021/05/18 17:21:21;;;;;;;3.40;2.63;;;17.40;99.90;;;;;;4963078;28;20226;-78
2021/05/18 17:23:46;;;;;;;3.13;2.20;;;17.20;99.90;;;;;;4987077;28;20187;-78
2021/05/18 17:26:13;;;;;;;3.60;3.30;;;17.10;99.90;;;;;;4969110;28;20196;-77
2021/05/18 17:28:40;;;;;;;3.43;3.13;;;17.10;99.90;;;;;;4986750;28;20219;-78
2021/05/18 17:31:08;;;;;;;3.40;3.10;;;17.10;99.90;;;;;;4987125;28;20642;-78
2021/05/18 17:33:34;;;;;;;3.50;3.17;;;16.90;99.90;;;;;;4971687;28;20996;-79
2021/05/18 17:36:00;;;;;;;4.53;2.77;;;16.70;99.90;;;;;;4986357;28;20631;-78
2021/05/18 17:38:26;;;;;;;2.67;2.47;;;16.60;99.90;;;;;;4969300;28;20578;-78
2021/05/18 17:40:52;;;;;;;2.63;2.43;;;16.50;99.90;;;;;;4944926;28;20939;-78
2021/05/18 17:43:18;;;;;;;3.13;2.83;;;16.50;99.90;;;;;;4959047;28;20571;-78
2021/05/18 17:45:44;;;;;;;2.63;2.43;;;16.50;99.90;;;;;;4976433;28;20194;-78
2021/05/18 17:48:11;;;;;;;2.70;2.50;;;16.50;99.90;;;;;;4942713;28;20653;-79
2021/05/18 17:50:36;;;;;;;2.63;2.40;;;16.50;99.90;;;;;;4976332;28;20578;-78
2021/05/18 17:53:02;;;;;;;3.30;3.00;;;16.40;99.90;;;;;;4976042;28;20571;-78
2021/05/18 17:55:28;;;;;;;2.70;2.00;;;16.40;99.90;;;;;;4975904;28;20167;-79
2021/05/18 17:57:54;;;;;;;2.40;2.20;;;16.40;99.90;;;;;;4975304;28;20636;-78
2021/05/18 18:00:21;;;;;;;3.67;2.60;;;16.30;99.90;;;;;;4975959;28;20521;-79
2021/05/18 18:02:48;;;;;;;2.20;2.00;;;16.30;99.90;;;;;;4953064;28;20946;-79
2021/05/18 18:05:14;;;;;;;2.10;1.93;;;16.30;99.90;;;;;;4975502;28;21041;-78
2021/05/18 18:07:40;;;;;;;2.40;2.20;;;16.30;99.90;;;;;;4974736;28;20613;-78
2021/05/18 18:10:08;;;;;;;2.20;2.00;;;16.30;99.90;;;;;;4959240;28;20955;-79
2021/05/18 18:12:35;;;;;;;2.90;2.13;;;16.30;99.90;;;;;;4941858;28;20674;-79
2021/05/18 18:15:01;;;;;;;4.30;2.30;;;16.30;99.90;;;;;;4957597;28;20579;-78
2021/05/18 18:17:27;;;;;;;1.90;1.63;;;16.30;99.90;;;;;;4982207;28;20638;-79
2021/05/18 18:19:54;;;;;;;3.63;3.30;;;16.30;99.90;;;;;;4971858;28;20519;-79
2021/05/18 18:22:20;;;;;;;1.60;1.43;;;16.30;99.90;;;;;;4994173;28;20593;-79
2021/05/18 18:24:46;;;;;;;2.33;1.80;;;16.30;99.90;;;;;;4994238;28;21322;-79
2021/05/18 18:27:15;;;;;;;2.47;1.83;;;16.40;99.90;;;;;;4983829;28;20618;-77
2021/05/18 18:29:41;;;;;;;2.30;1.97;;;16.40;99.90;;;;;;4973707;28;20628;-79